createdAt,value
2023-05-07T00:02:09.748Z,32.38
2023-05-07T00:04:38.688Z,26.55
2023-05-07T00:07:06.724Z,28.65
2023-05-07T00:09:33.637Z,33.13
2023-05-07T00:12:00.722Z,29.42
2023-05-07T00:14:27.669Z,29.15
2023-05-07T00:16:54.747Z,24.73
2023-05-07T00:19:21.768Z,29.20
2023-05-07T00:21:48.829Z,30.48
2023-05-07T00:24:15.787Z,31.45
2023-05-07T00:26:42.938Z,22.08
2023-05-07T00:29:09.898Z,28.63
2023-05-07T00:31:36.868Z,30.52
2023-05-07T00:34:03.814Z,32.75
2023-05-07T00:36:31.467Z,31.92
2023-05-07T00:39:01.205Z,23.25
2023-05-07T00:41:28.203Z,27.80
2023-05-07T00:43:55.153Z,29.75
2023-05-07T00:46:22.711Z,19.35
2023-05-07T00:48:53.575Z,27.88
2023-05-07T00:51:21.263Z,30.27
2023-05-07T00:53:48.690Z,24.50
2023-05-07T00:56:16.019Z,27.55
2023-05-07T00:58:43.155Z,25.40
2023-05-07T01:01:10.369Z,25.20
2023-05-07T01:03:37.358Z,21.67
2023-05-07T01:06:07.513Z,28.02
2023-05-07T01:08:36.490Z,22.48
2023-05-07T01:11:04.626Z,27.50
2023-05-07T01:13:32.297Z,25.63
2023-05-07T01:15:59.403Z,31.70
2023-05-07T01:18:27.539Z,21.73
2023-05-07T01:20:57.193Z,25.17
2023-05-07T01:23:24.388Z,30.63
2023-05-07T01:25:55.207Z,28.70
2023-05-07T01:28:24.457Z,28.63
2023-05-07T01:31:05.102Z,33.13
2023-05-07T01:33:36.157Z,30.08
2023-05-07T01:36:07.555Z,30.15
2023-05-07T01:38:35.257Z,36.00
2023-05-07T01:41:03.155Z,36.63
2023-05-07T01:43:31.481Z,37.40
2023-05-07T01:46:00.113Z,35.22
2023-05-07T01:48:27.347Z,35.28
2023-05-07T01:50:54.927Z,35.92
2023-05-07T01:53:22.201Z,33.65
2023-05-07T01:55:49.186Z,37.72
2023-05-07T01:58:17.232Z,24.13
2023-05-07T02:00:44.145Z,40.47
2023-05-07T02:03:11.166Z,39.35
2023-05-07T02:05:56.252Z,28.35
2023-05-07T02:08:31.013Z,33.65
2023-05-07T02:10:58.651Z,37.50
2023-05-07T02:13:29.825Z,34.25
2023-05-07T02:15:56.925Z,38.80
2023-05-07T02:18:24.989Z,34.50
2023-05-07T02:20:51.932Z,36.45
2023-05-07T02:23:18.862Z,35.55
2023-05-07T02:25:46.915Z,35.08
2023-05-07T02:28:14.289Z,37.03
2023-05-07T02:33:18.020Z,39.00
2023-05-07T02:35:45.017Z,38.88
2023-05-07T02:38:14.031Z,41.15
2023-05-07T02:40:42.465Z,40.05
2023-05-07T02:43:10.132Z,29.27
2023-05-07T02:45:38.732Z,34.33
2023-05-07T02:50:34.473Z,26.85
2023-05-07T02:53:01.426Z,33.97
2023-05-07T02:55:28.614Z,35.92
2023-05-07T02:57:56.570Z,43.10
2023-05-07T03:00:25.486Z,39.25
2023-05-07T03:03:15.706Z,41.50
2023-05-07T03:05:42.833Z,38.33
2023-05-07T03:08:10.844Z,44.28
2023-05-07T03:10:38.658Z,40.47
2023-05-07T03:13:05.952Z,44.05
2023-05-07T03:15:33.086Z,42.03
2023-05-07T03:18:00.078Z,47.42
2023-05-07T03:20:27.301Z,44.75
2023-05-07T03:22:54.318Z,41.42
2023-05-07T03:25:21.427Z,40.50
2023-05-07T03:27:48.339Z,40.22
2023-05-07T03:30:17.909Z,50.30
2023-05-07T03:32:44.877Z,39.78
2023-05-07T03:35:12.905Z,46.30
2023-05-07T03:37:41.514Z,44.83
2023-05-07T03:40:11.670Z,47.10
2023-05-07T03:42:44.623Z,34.60
2023-05-07T03:45:13.106Z,43.33
2023-05-07T03:47:44.432Z,42.00
2023-05-07T03:50:15.854Z,43.10
2023-05-07T03:52:42.802Z,41.72
2023-05-07T03:55:11.260Z,44.53
2023-05-07T03:57:40.209Z,42.33
2023-05-07T04:00:08.221Z,34.80
2023-05-07T04:02:47.522Z,43.83
2023-05-07T04:05:17.782Z,22.80
2023-05-07T04:07:47.129Z,34.30
2023-05-07T04:10:17.602Z,37.33
2023-05-07T04:12:47.123Z,35.30
2023-05-07T04:15:18.597Z,38.17
2023-05-07T04:17:45.835Z,34.58
2023-05-07T04:20:17.599Z,26.00
2023-05-07T04:22:48.697Z,33.80
2023-05-07T04:25:17.444Z,33.38
2023-05-07T04:27:44.852Z,23.63
2023-05-07T04:30:14.499Z,34.78
2023-05-07T04:32:41.739Z,28.67
2023-05-07T04:35:08.892Z,28.33
2023-05-07T04:37:36.769Z,36.38
2023-05-07T04:40:05.033Z,31.52
2023-05-07T04:42:32.265Z,20.58
2023-05-07T04:45:03.028Z,32.75
2023-05-07T04:47:33.418Z,23.33
2023-05-07T04:50:01.780Z,32.58
2023-05-07T04:52:28.813Z,29.20
2023-05-07T04:54:55.783Z,34.53
2023-05-07T04:57:23.406Z,26.08
2023-05-07T04:59:50.329Z,32.83
2023-05-07T05:02:20.103Z,17.67
2023-05-07T05:04:48.143Z,22.10
2023-05-07T05:07:15.811Z,24.75
2023-05-07T05:09:42.888Z,25.63
2023-05-07T05:12:10.514Z,26.73
2023-05-07T05:14:38.901Z,30.42
2023-05-07T05:17:07.162Z,27.13
2023-05-07T05:19:34.207Z,32.17
2023-05-07T05:22:02.105Z,31.05
2023-05-07T05:24:29.365Z,31.60
2023-05-07T05:26:56.454Z,30.63
2023-05-07T05:29:23.910Z,32.05
2023-05-07T05:31:50.947Z,29.55
2023-05-07T05:34:20.694Z,34.75
2023-05-07T05:36:48.093Z,30.13
2023-05-07T05:39:15.981Z,31.73
2023-05-07T05:41:43.453Z,35.03
2023-05-07T05:44:10.374Z,31.58
2023-05-07T05:46:37.766Z,30.60
2023-05-07T05:49:04.849Z,26.50
2023-05-07T05:51:32.305Z,28.55
2023-05-07T05:53:59.318Z,30.60
2023-05-07T05:56:26.788Z,27.08
2023-05-07T05:58:53.876Z,28.77
2023-05-07T06:01:21.193Z,27.63
2023-05-07T06:03:50.469Z,29.25
2023-05-07T06:06:18.035Z,27.98
2023-05-07T06:08:45.644Z,33.75
2023-05-07T06:11:16.522Z,31.45
2023-05-07T06:16:13.547Z,26.33
2023-05-07T06:18:41.091Z,24.58
2023-05-07T06:21:08.040Z,34.08
2023-05-07T06:23:36.217Z,31.33
2023-05-07T06:26:04.704Z,23.15
2023-05-07T06:28:37.867Z,24.45
2023-05-07T06:31:23.027Z,28.05
2023-05-07T06:33:58.019Z,22.48
2023-05-07T06:36:30.632Z,30.50
2023-05-07T06:38:59.510Z,27.23
2023-05-07T06:41:26.887Z,32.15
2023-05-07T06:43:55.583Z,23.92
2023-05-07T06:46:31.336Z,32.45
2023-05-07T06:48:58.514Z,33.35
2023-05-07T06:51:27.867Z,30.05
2023-05-07T06:53:55.004Z,29.30
2023-05-07T06:56:22.084Z,20.08
2023-05-07T06:58:49.101Z,27.73
2023-05-07T07:01:16.193Z,30.58
2023-05-07T07:03:44.771Z,24.58
2023-05-07T07:06:11.689Z,26.13
2023-05-07T07:08:39.766Z,28.25
2023-05-07T07:11:09.599Z,24.20
2023-05-07T07:13:36.584Z,28.48
2023-05-07T07:16:03.928Z,24.17
2023-05-07T07:18:31.015Z,25.33
2023-05-07T07:20:59.973Z,26.45
2023-05-07T07:23:27.608Z,30.50
2023-05-07T07:25:54.836Z,19.23
2023-05-07T07:28:22.981Z,26.30
2023-05-07T07:30:50.675Z,26.00
2023-05-07T07:33:18.335Z,25.27
2023-05-07T07:35:45.389Z,26.00
2023-05-07T07:38:12.351Z,23.45
2023-05-07T07:40:40.149Z,25.33
2023-05-07T07:43:08.638Z,24.90
2023-05-07T07:45:36.079Z,21.15
2023-05-07T07:48:03.500Z,22.52
2023-05-07T07:50:44.465Z,22.98
2023-05-07T07:53:14.425Z,27.75
2023-05-07T07:55:41.750Z,22.55
2023-05-07T07:58:10.814Z,13.43
2023-05-07T08:00:38.060Z,21.02
2023-05-07T08:03:06.206Z,20.70
2023-05-07T08:05:37.557Z,21.75
2023-05-07T08:08:06.760Z,25.25
2023-05-07T08:10:35.992Z,19.30
2023-05-07T08:13:09.129Z,18.65
2023-05-07T08:15:38.213Z,15.15
2023-05-07T08:18:05.367Z,19.92
2023-05-07T08:20:33.457Z,19.33
2023-05-07T08:23:01.112Z,17.35
2023-05-07T08:25:28.457Z,19.83
2023-05-07T08:27:55.904Z,20.52
2023-05-07T08:30:23.260Z,14.50
2023-05-07T08:32:51.524Z,16.13
2023-05-07T08:35:18.733Z,13.18
2023-05-07T08:37:45.753Z,16.42
2023-05-07T08:40:14.691Z,17.48
2023-05-07T08:42:43.814Z,16.98
2023-05-07T08:45:12.251Z,14.75
2023-05-07T08:47:53.846Z,11.93
2023-05-07T08:50:23.217Z,12.40
2023-05-07T08:52:51.402Z,12.85
2023-05-07T08:55:20.074Z,15.85
2023-05-07T08:57:48.930Z,11.90
2023-05-07T09:00:17.440Z,14.10
2023-05-07T09:02:47.815Z,14.45
2023-05-07T09:05:14.900Z,10.20
2023-05-07T09:07:42.065Z,12.18
2023-05-07T09:10:10.505Z,12.45
2023-05-07T09:12:42.168Z,12.32
2023-05-07T09:15:11.270Z,12.32
2023-05-07T09:17:39.351Z,13.35
2023-05-07T09:20:10.693Z,18.73
2023-05-07T09:22:39.723Z,11.90
2023-05-07T09:25:11.063Z,9.80
2023-05-07T09:27:39.519Z,12.77
2023-05-07T09:30:10.980Z,10.82
2023-05-07T09:32:41.014Z,13.65
2023-05-07T09:35:18.732Z,10.90
2023-05-07T09:37:50.928Z,11.18
2023-05-07T09:40:26.718Z,11.18
2023-05-07T09:42:55.185Z,11.23
2023-05-07T09:45:27.754Z,10.52
2023-05-07T09:47:57.281Z,12.63
2023-05-07T09:50:34.077Z,12.00
2023-05-07T09:53:02.207Z,12.35
2023-05-07T09:55:29.318Z,10.23
2023-05-07T09:57:56.818Z,14.95
2023-05-07T10:00:26.747Z,12.25
2023-05-07T10:03:04.519Z,12.45
2023-05-07T10:05:41.812Z,12.85
2023-05-07T10:08:10.966Z,12.45
2023-05-07T10:10:39.586Z,12.15
2023-05-07T10:13:11.865Z,12.38
2023-05-07T10:15:43.533Z,12.73
2023-05-07T10:18:11.211Z,13.02
2023-05-07T10:20:39.793Z,12.63
2023-05-07T10:23:14.324Z,12.77
2023-05-07T10:25:44.626Z,10.50
2023-05-07T10:28:20.834Z,14.20
2023-05-07T10:31:13.266Z,11.57
2023-05-07T10:36:14.404Z,13.43
2023-05-07T10:38:41.859Z,14.00
2023-05-07T10:41:09.522Z,14.30
2023-05-07T10:43:43.033Z,14.10
2023-05-07T10:46:18.989Z,12.95
2023-05-07T10:49:02.007Z,13.10
2023-05-07T10:51:36.634Z,13.02
2023-05-07T10:54:22.112Z,14.68
2023-05-07T10:57:37.571Z,14.88
2023-05-07T11:00:37.988Z,13.25
2023-05-07T11:03:09.536Z,13.52
2023-05-07T11:06:15.971Z,14.43
2023-05-07T11:09:00.556Z,13.45
2023-05-07T11:11:49.124Z,16.67
2023-05-07T11:14:46.500Z,14.80
2023-05-07T11:17:18.181Z,13.00
2023-05-07T11:19:53.375Z,13.40
2023-05-07T11:22:31.859Z,15.50
2023-05-07T11:25:08.691Z,14.73
2023-05-07T11:27:37.636Z,13.95
2023-05-07T11:30:05.629Z,15.80
2023-05-07T11:32:33.605Z,16.02
2023-05-07T11:35:02.229Z,15.45
2023-05-07T11:37:31.109Z,14.10
2023-05-07T11:40:07.708Z,10.02
2023-05-07T11:42:42.114Z,11.73
2023-05-07T11:45:10.445Z,13.15
2023-05-07T11:47:37.684Z,13.48
2023-05-07T11:50:08.675Z,12.85
2023-05-07T11:52:36.640Z,13.60
2023-05-07T11:55:05.512Z,12.63
2023-05-07T11:57:35.627Z,12.43
2023-05-07T12:00:05.599Z,12.88
2023-05-07T12:02:43.113Z,13.98
2023-05-07T12:05:11.081Z,12.70
2023-05-07T12:07:38.447Z,12.45
2023-05-07T12:10:07.513Z,13.85
2023-05-07T12:12:43.125Z,12.73
2023-05-07T12:15:11.327Z,15.30
2023-05-07T12:17:38.922Z,13.88
2023-05-07T12:20:07.049Z,14.15
2023-05-07T12:22:34.306Z,13.90
2023-05-07T12:25:01.257Z,12.88
2023-05-07T12:27:28.384Z,13.07
2023-05-07T12:29:55.639Z,14.13
2023-05-07T12:32:23.250Z,14.73
2023-05-07T12:34:53.473Z,14.50
2023-05-07T12:37:27.560Z,12.48
2023-05-07T12:40:07.437Z,15.02
2023-05-07T12:42:38.071Z,12.40
2023-05-07T12:45:17.688Z,16.33
2023-05-07T12:47:46.403Z,15.73
2023-05-07T12:50:15.587Z,16.73
2023-05-07T12:52:44.468Z,17.13
2023-05-07T12:55:16.151Z,16.35
2023-05-07T12:57:46.979Z,15.93
2023-05-07T13:00:14.722Z,17.48
2023-05-07T13:02:46.327Z,17.17
2023-05-07T13:05:13.913Z,15.90
2023-05-07T13:07:41.723Z,14.48
2023-05-07T13:10:09.739Z,14.75
2023-05-07T13:12:36.820Z,14.15
2023-05-07T13:15:04.003Z,12.40
2023-05-07T13:17:32.353Z,15.07
2023-05-07T13:19:59.670Z,15.98
2023-05-07T13:22:26.661Z,14.02
2023-05-07T13:24:53.623Z,15.65
2023-05-07T13:27:21.561Z,14.73
2023-05-07T13:29:48.508Z,14.75
2023-05-07T13:32:15.559Z,14.15
2023-05-07T13:34:42.693Z,13.70
2023-05-07T13:37:11.360Z,13.93
2023-05-07T13:39:38.359Z,13.35
2023-05-07T13:42:05.431Z,13.57
2023-05-07T13:44:32.310Z,15.68
2023-05-07T13:46:59.336Z,15.57
2023-05-07T13:49:26.232Z,11.77
2023-05-07T13:51:53.121Z,14.32
2023-05-07T13:54:19.989Z,13.73
2023-05-07T13:56:46.941Z,15.13
2023-05-07T13:59:15.348Z,13.20
2023-05-07T14:01:42.551Z,13.65
2023-05-07T14:04:09.757Z,14.80
2023-05-07T14:06:36.709Z,15.10
2023-05-07T14:09:03.903Z,14.85
2023-05-07T14:11:31.198Z,14.27
2023-05-07T14:13:59.448Z,12.15
2023-05-07T14:16:26.432Z,12.27
2023-05-07T14:18:57.709Z,12.15
2023-05-07T14:21:25.402Z,12.57
2023-05-07T14:23:52.270Z,13.48
2023-05-07T14:26:19.254Z,12.35
2023-05-07T14:28:47.290Z,11.77
2023-05-07T14:31:14.627Z,12.48
2023-05-07T14:33:42.317Z,10.95
2023-05-07T14:36:09.464Z,13.13
2023-05-07T14:38:36.456Z,12.25
2023-05-07T14:41:03.444Z,13.25
2023-05-07T14:43:30.415Z,11.57
2023-05-07T14:45:57.388Z,14.88
2023-05-07T14:48:24.422Z,12.10
2023-05-07T14:50:51.313Z,12.07
2023-05-07T14:53:18.207Z,11.48
2023-05-07T14:55:45.143Z,12.88
2023-05-07T14:58:12.614Z,10.02
2023-05-07T15:00:39.599Z,11.18
2023-05-07T15:03:09.713Z,12.23
2023-05-07T15:05:37.460Z,12.13
2023-05-07T15:08:04.448Z,12.43
2023-05-07T15:10:31.390Z,11.32
2023-05-07T15:12:58.384Z,11.95
2023-05-07T15:15:25.337Z,11.48
2023-05-07T15:17:53.854Z,11.55
2023-05-07T15:20:20.973Z,12.05
2023-05-07T15:22:47.934Z,12.40
2023-05-07T15:25:15.302Z,11.90
2023-05-07T15:27:42.675Z,13.02
2023-05-07T15:30:11.842Z,11.80
2023-05-07T15:32:39.377Z,12.20
2023-05-07T15:35:07.563Z,13.27
2023-05-07T15:37:35.075Z,12.48
2023-05-07T15:40:07.351Z,10.43
2023-05-07T15:42:34.716Z,12.07
2023-05-07T15:45:02.289Z,13.32
2023-05-07T15:47:29.275Z,12.75
2023-05-07T15:49:56.442Z,11.63
2023-05-07T15:52:23.377Z,12.48
2023-05-07T15:54:50.385Z,10.88
2023-05-07T15:57:17.243Z,13.32
2023-05-07T15:59:44.181Z,12.88
2023-05-07T16:02:11.290Z,12.07
2023-05-07T16:04:38.234Z,12.50
2023-05-07T16:07:05.407Z,13.00
2023-05-07T16:09:33.457Z,13.48
2023-05-07T16:12:01.027Z,14.68
2023-05-07T16:14:28.629Z,11.70
2023-05-07T16:16:56.950Z,13.35
2023-05-07T16:19:24.132Z,13.05
2023-05-07T16:21:51.088Z,12.90
2023-05-07T16:24:18.202Z,12.27
2023-05-07T16:26:45.100Z,13.43
2023-05-07T16:29:13.524Z,11.00
2023-05-07T16:31:40.709Z,11.10
2023-05-07T16:34:08.050Z,12.35
2023-05-07T16:36:34.976Z,12.45
2023-05-07T16:39:02.148Z,9.88
2023-05-07T16:41:29.171Z,12.23
2023-05-07T16:43:57.666Z,13.73
2023-05-07T16:46:24.806Z,12.55
2023-05-07T16:48:51.823Z,10.88
2023-05-07T16:51:18.788Z,11.07
2023-05-07T16:53:45.745Z,9.85
2023-05-07T16:56:12.668Z,12.57
2023-05-07T16:58:39.571Z,13.43
2023-05-07T17:01:07.274Z,11.45
2023-05-07T17:03:34.261Z,10.18
2023-05-07T17:06:01.279Z,10.63
2023-05-07T17:08:31.178Z,13.02
2023-05-07T17:10:58.115Z,10.63
2023-05-07T17:13:27.879Z,11.88
2023-05-07T17:15:55.476Z,13.02
2023-05-07T17:18:22.387Z,12.15
2023-05-07T17:20:49.279Z,11.98
2023-05-07T17:23:16.532Z,14.98
2023-05-07T17:25:46.205Z,12.15
2023-05-07T17:28:13.356Z,11.00
2023-05-07T17:30:40.660Z,13.18
2023-05-07T17:33:20.081Z,12.27
2023-05-07T17:35:48.267Z,12.23
2023-05-07T17:38:15.154Z,12.18
2023-05-07T17:40:42.043Z,9.60
2023-05-07T17:43:08.996Z,17.17
2023-05-07T17:45:36.420Z,11.95
2023-05-07T17:48:03.673Z,12.30
2023-05-07T17:50:30.672Z,11.10
2023-05-07T17:52:57.773Z,12.32
2023-05-07T17:55:24.758Z,14.30
2023-05-07T17:57:51.870Z,10.32
2023-05-07T18:00:18.915Z,10.65
2023-05-07T18:02:46.309Z,13.13
2023-05-07T18:05:13.304Z,10.77
2023-05-07T18:07:40.313Z,9.63
2023-05-07T18:10:07.672Z,11.05
2023-05-07T18:12:34.617Z,10.63
2023-05-07T18:15:01.644Z,11.88
2023-05-07T18:17:28.669Z,10.40
2023-05-07T18:19:56.237Z,11.98
2023-05-07T18:22:23.177Z,11.23
2023-05-07T18:24:52.285Z,10.75
2023-05-07T18:27:19.226Z,12.32
2023-05-07T18:29:46.245Z,11.20
2023-05-07T18:32:13.817Z,12.27
2023-05-07T18:34:41.710Z,12.98
2023-05-07T18:37:08.964Z,12.43
2023-05-07T18:39:36.528Z,11.55
2023-05-07T18:42:05.264Z,11.43
2023-05-07T18:44:33.168Z,14.25
2023-05-07T18:47:00.716Z,13.00
2023-05-07T18:49:27.655Z,13.38
2023-05-07T18:51:54.551Z,12.35
2023-05-07T18:54:21.436Z,12.18
2023-05-07T18:56:48.382Z,12.00
2023-05-07T18:59:15.507Z,10.95
2023-05-07T19:01:43.176Z,11.13
2023-05-07T19:04:11.296Z,11.15
2023-05-07T19:06:38.272Z,10.65
2023-05-07T19:09:05.251Z,14.27
2023-05-07T19:11:32.259Z,12.63
2023-05-07T19:14:01.180Z,12.27
2023-05-07T19:16:30.623Z,16.70
2023-05-07T19:18:57.655Z,9.43
2023-05-07T19:21:24.972Z,11.80
2023-05-07T19:23:53.750Z,10.65
2023-05-07T19:26:21.223Z,11.07
2023-05-07T19:28:56.941Z,10.52
2023-05-07T19:31:36.841Z,11.50
2023-05-07T19:34:04.125Z,9.50
2023-05-07T19:36:33.372Z,11.57
2023-05-07T19:39:00.416Z,11.20
2023-05-07T19:41:27.349Z,11.80
2023-05-07T19:43:54.329Z,12.90
2023-05-07T19:46:21.258Z,9.88
2023-05-07T19:48:48.299Z,12.68
2023-05-07T19:51:15.408Z,12.77
2023-05-07T19:53:42.469Z,8.95
2023-05-07T19:56:11.765Z,10.27
2023-05-07T19:58:39.441Z,9.55
2023-05-07T20:01:06.721Z,13.80
2023-05-07T20:03:37.024Z,9.82
2023-05-07T20:06:04.291Z,9.93
2023-05-07T20:08:31.306Z,8.63
2023-05-07T20:10:59.840Z,10.93
2023-05-07T20:13:27.527Z,9.68
2023-05-07T20:15:59.277Z,9.98
2023-05-07T20:18:28.182Z,8.77
2023-05-07T20:20:55.230Z,9.60
2023-05-07T20:23:22.323Z,10.57
2023-05-07T20:25:50.347Z,10.73
2023-05-07T20:28:17.632Z,9.55
2023-05-07T20:30:44.785Z,11.73
2023-05-07T20:33:12.483Z,9.68
2023-05-07T20:35:40.478Z,13.25
2023-05-07T20:38:07.571Z,13.75
2023-05-07T20:40:37.200Z,9.98
2023-05-07T20:43:06.082Z,10.93
2023-05-07T20:45:33.386Z,13.48
2023-05-07T20:48:01.141Z,9.98
2023-05-07T20:50:28.358Z,10.88
2023-05-07T20:52:55.437Z,11.60
2023-05-07T20:55:23.059Z,10.50
2023-05-07T20:57:50.054Z,10.38
2023-05-07T21:00:17.714Z,10.95
2023-05-07T21:02:45.607Z,10.35
2023-05-07T21:05:12.920Z,10.23
2023-05-07T21:07:39.860Z,10.18
2023-05-07T21:10:07.365Z,10.30
2023-05-07T21:12:34.325Z,11.75
2023-05-07T21:15:01.326Z,10.25
2023-05-07T21:17:31.629Z,10.93
2023-05-07T21:19:58.632Z,11.60
2023-05-07T21:22:25.657Z,12.93
2023-05-07T21:24:52.586Z,11.77
2023-05-07T21:27:19.592Z,11.02
2023-05-07T21:29:46.515Z,16.70
2023-05-07T21:32:13.448Z,12.48
2023-05-07T21:34:40.376Z,10.40
2023-05-07T21:37:07.313Z,10.45
2023-05-07T21:39:34.265Z,11.48
2023-05-07T21:42:01.198Z,10.60
2023-05-07T21:44:31.553Z,10.20
2023-05-07T21:46:58.432Z,11.10
2023-05-07T21:49:25.530Z,10.57
2023-05-07T21:51:52.482Z,11.50
2023-05-07T21:54:19.428Z,10.27
2023-05-07T21:56:47.238Z,10.40
2023-05-07T21:59:15.660Z,12.57
2023-05-07T22:01:42.806Z,11.55
2023-05-07T22:04:09.961Z,11.48
2023-05-07T22:06:37.070Z,12.70
2023-05-07T22:09:03.920Z,10.60
2023-05-07T22:11:30.868Z,10.43
2023-05-07T22:13:57.724Z,12.93
2023-05-07T22:16:24.658Z,10.93
2023-05-07T22:18:51.698Z,12.65
2023-05-07T22:21:28.652Z,12.10
2023-05-07T22:23:55.642Z,10.68
2023-05-07T22:26:22.660Z,10.63
2023-05-07T22:28:49.565Z,8.75
2023-05-07T22:31:16.470Z,9.35
2023-05-07T22:33:43.408Z,11.93
2023-05-07T22:36:10.326Z,9.30
2023-05-07T22:38:37.217Z,10.25
2023-05-07T22:41:04.196Z,12.43
2023-05-07T22:43:31.186Z,10.05
2023-05-07T22:46:00.846Z,16.77
2023-05-07T22:48:29.263Z,10.23
2023-05-07T22:50:56.601Z,11.77
2023-05-07T22:53:23.740Z,9.40
2023-05-07T22:55:51.340Z,9.20
2023-05-07T22:58:18.384Z,12.85
2023-05-07T23:00:45.327Z,10.80
2023-05-07T23:03:12.338Z,10.63
2023-05-07T23:05:39.917Z,12.82
2023-05-07T23:08:06.865Z,10.35
2023-05-07T23:10:34.932Z,10.45
2023-05-07T23:13:02.221Z,9.40
2023-05-07T23:15:29.176Z,10.90
2023-05-07T23:17:56.341Z,7.95
2023-05-07T23:20:23.353Z,9.65
2023-05-07T23:22:50.225Z,9.63
2023-05-07T23:25:18.035Z,11.35
2023-05-07T23:27:45.062Z,10.65
2023-05-07T23:30:13.484Z,9.00
2023-05-07T23:32:40.656Z,9.65
2023-05-07T23:35:08.593Z,9.57
2023-05-07T23:37:35.824Z,10.57
2023-05-07T23:40:02.728Z,8.25
2023-05-07T23:42:29.647Z,9.88
2023-05-07T23:44:56.948Z,8.18
2023-05-07T23:47:24.272Z,8.77
2023-05-07T23:49:51.305Z,8.57
2023-05-07T23:52:18.216Z,9.77
2023-05-07T23:54:45.187Z,9.73
2023-05-07T23:57:12.184Z,7.32
2023-05-07T23:59:39.096Z,10.32
